Terminal Aerodrome Forecast
Issued by NWS

Home | Current Version | Previous Version | Text Only | Print | Product List | Glossary On
Versions: 1 2 3 4 5 6 7 8 9 10 11 12 13 14 15 16 17 18 19
000
FTUS41 KCLE 051500 AAB
TAFFDY
TAF AMD
KFDY 051500Z 0515/0612 04010G20KT P6SM SCT007 OVC012
     FM051600 03010G20KT P6SM SCT012 BKN025
     FM051700 02015G25KT P6SM BKN035
     FM060100 01006KT P6SM SKC=

USA.gov is the U.S. government's official web portal to all federal, state and local government web resources and services.